Buchanan #12 — WDC2499 — position and weather

sailwx.info

Track history (hours):
 
Tides and Currents Weather Stations Pressure Air Temp Water Temp Dewpoint Dewpoint Depression Visibility Wind Speed Wind Dir Waves Ship Positions

Buchanan #12

Owner: Buchanan Marine LP, New Haven, CT. More information available from US FCC via Universal Licensing System and Coast Guard Vessel Documentation Center.

Last reported at 2017-Dec-11 17:00 UTC. Time now 2017-Dec-13 22:40 UTC.
Position N 40°40' W 074°01'.

Length 27 m; draft 3 m.

Type: Tug. MMSI: 366993970.

Date/timePositionNaut miles runAvg speedWind from/ knotsBaromVisibWave heightAir tempDewpointWater temp
2017-Dec-11 17:00N 40°40' W 074°01'0 0.0
2017-Dec-11 16:30N 40°40' W 074°01'0 0.0
2017-Dec-11 16:00N 40°40' W 074°01'0 0.0
2017-Dec-11 15:30N 40°40' W 074°01'0 0.0
2017-Dec-11 15:00N 40°40' W 074°01'0 0.0
2017-Dec-11 14:30N 40°40' W 074°01'0 0.0
2017-Dec-11 14:00N 40°40' W 074°01'0 0.0
2017-Dec-11 13:30N 40°40' W 074°01'0 0.0
2017-Dec-11 13:00N 40°40' W 074°01'0 0.0
2017-Dec-11 12:30N 40°40' W 074°01'0 0.0
2017-Dec-11 12:00N 40°40' W 074°01'0 0.0
2017-Dec-11 11:30N 40°40' W 074°01'0 0.0
2017-Dec-11 11:00N 40°40' W 074°01'0 0.0
2017-Dec-11 10:30N 40°40' W 074°01'0 0.0
2017-Dec-11 10:00N 40°40' W 074°01'0 0.1
2017-Dec-11 09:30N 40°40' W 074°01'2 3.6
2017-Dec-11 09:00N 40°40' W 074°03'2 4.8
2017-Dec-11 08:30N 40°41' W 074°01'3 6.8
2017-Dec-11 08:00N 40°44' W 073°58'3 6.0
2017-Dec-11 07:30N 40°47' W 073°56'3 5.8
2017-Dec-11 07:00N 40°48' W 073°53'3 6.2
2017-Dec-11 06:29N 40°48' W 073°48'2 3.4
2017-Dec-11 06:00N 40°48' W 073°51'0 0.1
2017-Dec-11 05:30N 40°48' W 073°50'3 6.6
2017-Dec-11 05:00N 40°47' W 073°55'4 7.9
2017-Dec-11 04:30N 40°45' W 073°58'3 7.0
2017-Dec-11 04:00N 40°42' W 074°00'3 5.6
2017-Dec-11 03:30N 40°40' W 074°03'0 0.2
2017-Dec-11 03:00N 40°40' W 074°03'0 0.1
2017-Dec-11 02:30N 40°40' W 074°03'0 1.0
2017-Dec-11 02:00N 40°40' W 074°03'3 6.9
2017-Dec-11 01:30N 40°43' W 074°01'4 7.4
2017-Dec-11 00:59N 40°47' W 073°60'3 7.0
2017-Dec-11 00:30N 40°50' W 073°58'3 6.5
2017-Dec-11 00:00N 40°53' W 073°56'6 0.3
2017-Dec-10 05:01N 40°59' W 073°54'0 6.0
2017-Dec-10 04:58N 40°58' W 073°54'3 5.7
2017-Dec-10 04:30N 40°56' W 073°55'3 5.2
2017-Dec-10 04:00N 40°53' W 073°56'3 5.0
2017-Dec-10 03:30N 40°51' W 073°57'2 4.6
2017-Dec-10 03:00N 40°49' W 073°58'2 4.2
2017-Dec-10 02:30N 40°47' W 073°60'2 4.0
2017-Dec-10 02:00N 40°45' W 074°01'2 3.9
2017-Dec-10 01:30N 40°43' W 074°01'2 3.6
2017-Dec-10 01:00N 40°41' W 074°02'2 3.8
2017-Dec-10 00:30N 40°40' W 074°03'0 0.1
2017-Dec-10 00:00N 40°40' W 074°03'3 6.8
2017-Dec-09 23:30N 40°42' W 073°60'611.1
2017-Dec-09 23:00N 40°47' W 073°56'5 9.5
2017-Dec-09 22:29N 40°48' W 073°50'0 0.6
2017-Dec-09 22:00N 40°48' W 073°49'0 0.0
2017-Dec-09 21:30N 40°48' W 073°49'0 0.0
2017-Dec-09 21:00N 40°48' W 073°49'0 0.0
2017-Dec-09 20:30N 40°48' W 073°49'0 0.0
2017-Dec-09 20:00N 40°48' W 073°49'0 0.0
2017-Dec-09 19:21N 40°48' W 073°49'0 0.1
2017-Dec-09 19:00N 40°48' W 073°49'0 0.0
2017-Dec-09 18:30N 40°48' W 073°49'0 0.0
2017-Dec-09 18:00N 40°48' W 073°49'0 0.0
2017-Dec-09 17:30N 40°48' W 073°49'0 0.0
2017-Dec-09 17:00N 40°48' W 073°49'0 0.5
2017-Dec-09 16:30N 40°48' W 073°50'2 3.4
2017-Dec-09 16:00N 40°48' W 073°52'4 8.0
2017-Dec-09 15:30N 40°46' W 073°57'4 8.6
2017-Dec-09 15:00N 40°42' W 073°59'4 7.5
2017-Dec-09 14:30N 40°40' W 074°03'1 2.9
2017-Dec-09 14:00N 40°39' W 074°04'2 3.2
2017-Dec-09 13:29N 40°39' W 074°07'0 0.0
2017-Dec-09 13:00N 40°39' W 074°07'0 0.0
2017-Dec-09 12:29N 40°39' W 074°07'0 0.0
2017-Dec-09 11:59N 40°39' W 074°07'0 0.0
2017-Dec-09 11:30N 40°39' W 074°07'0 0.0
2017-Dec-09 11:00N 40°39' W 074°07'1 2.2
2017-Dec-09 10:30N 40°39' W 074°05'2 3.3
2017-Dec-09 10:00N 40°40' W 074°03'0 0.0
2017-Dec-09 09:30N 40°40' W 074°03'0 0.0
2017-Dec-09 09:00N 40°40' W 074°03'0 0.0
2017-Dec-09 08:30N 40°40' W 074°03'0 0.0
2017-Dec-09 08:00N 40°40' W 074°03'0 0.0
2017-Dec-09 07:30N 40°40' W 074°03'0 0.1
2017-Dec-09 07:00N 40°40' W 074°03'3 6.0
2017-Dec-09 06:30N 40°42' W 074°00'3 5.6
2017-Dec-09 05:59N 40°44' W 073°58'2 4.2
2017-Dec-09 05:30N 40°46' W 073°57'2 3.8
2017-Dec-09 04:56N 40°47' W 073°55'2 4.6
2017-Dec-09 04:30N 40°48' W 073°52'3 4.5
2017-Dec-09 03:56N 40°48' W 073°49'0 0.4
2017-Dec-09 03:29N 40°48' W 073°49'3 6.1
2017-Dec-09 02:59N 40°48' W 073°53'3 6.0
2017-Dec-09 02:30N 40°46' W 073°56'3 6.3
2017-Dec-09 02:00N 40°44' W 073°58'3 5.6
2017-Dec-09 01:30N 40°41' W 074°00'2 4.4
2017-Dec-09 01:00N 40°40' W 074°03'1 1.1
2017-Dec-09 00:30N 40°40' W 074°03'2 4.6
2017-Dec-09 00:00N 40°42' W 074°02'4 7.1
2017-Dec-08 23:30N 40°45' W 074°01'4 7.0
2017-Dec-08 23:00N 40°49' W 073°59'3 6.6
2017-Dec-08 22:30N 40°52' W 073°57'3 5.9
2017-Dec-08 21:58N 40°54' W 073°55'5 0.3
2017-Dec-08 03:29N 40°59' W 073°53'3 6.6
2017-Dec-08 03:00N 40°56' W 073°55'3 6.1
2017-Dec-08 02:30N 40°53' W 073°56'3 5.9
2017-Dec-08 02:00N 40°51' W 073°57'3 5.1
2017-Dec-08 01:29N 40°48' W 073°59'2 4.6
2017-Dec-08 01:00N 40°46' W 074°00'2 4.3
2017-Dec-08 00:30N 40°44' W 074°01'2 4.8
2017-Dec-08 00:00N 40°42' W 074°02'2 4.5
2017-Dec-07 23:30N 40°40' W 074°03'0 0.0
2017-Dec-07 23:00N 40°40' W 074°03'0 0.0
2017-Dec-07 22:30N 40°40' W 074°03'1 2.6
2017-Dec-07 22:00N 40°41' W 074°02'4 7.6
2017-Dec-07 21:30N 40°43' W 073°58'4 8.4
2017-Dec-07 21:00N 40°47' W 073°55'3 6.6
2017-Dec-07 20:30N 40°48' W 073°51'2 3.0
2017-Dec-07 19:59N 40°48' W 073°49'0 0.0
2017-Dec-07 19:25N 40°48' W 073°49'0 0.0
2017-Dec-07 18:55N 40°48' W 073°49'0 0.0
2017-Dec-07 18:30N 40°48' W 073°49'0 0.0
2017-Dec-07 17:51N 40°48' W 073°49'0 0.0
2017-Dec-07 17:27N 40°48' W 073°49'0 0.0
2017-Dec-07 17:00N 40°48' W 073°49'0 0.0
2017-Dec-07 16:30N 40°48' W 073°49'0 0.0
2017-Dec-07 15:43N 40°48' W 073°49'0 0.0
2017-Dec-07 15:30N 40°48' W 073°49'0 0.0
2017-Dec-07 15:00N 40°48' W 073°49'1 1.0
2017-Dec-07 14:28N 40°48' W 073°49'3 5.4
2017-Dec-07 14:00N 40°48' W 073°52'4 7.4
2017-Dec-07 13:30N 40°46' W 073°56'4 7.9
2017-Dec-07 13:00N 40°43' W 073°58'4 7.2
2017-Dec-07 12:30N 40°40' W 074°02'1 2.4
2017-Dec-07 12:00N 40°40' W 074°03'0 0.1
2017-Dec-07 11:30N 40°40' W 074°03'1 1.1
2017-Dec-07 11:00N 40°40' W 074°03'4 7.6
2017-Dec-07 10:30N 40°44' W 074°01'4 8.1
2017-Dec-07 10:00N 40°48' W 073°59'4 7.7
2017-Dec-07 09:30N 40°51' W 073°57'3 6.9
2017-Dec-07 09:00N 40°54' W 073°55'  
2017-Dec-04 05:22N 40°58' W 073°54'2 6.5
2017-Dec-04 05:00N 40°56' W 073°55'3 6.7
2017-Dec-04 04:30N 40°53' W 073°56'4 7.1
2017-Dec-04 04:00N 40°49' W 073°58'4 7.8
2017-Dec-04 03:30N 40°46' W 074°00'4 7.7
2017-Dec-04 03:00N 40°42' W 074°02'2 4.1
2017-Dec-04 02:30N 40°40' W 074°03'2 3.4
2017-Dec-04 02:00N 40°40' W 074°01'0 0.0
2017-Dec-04 01:30N 40°40' W 074°01'2 4.7
2017-Dec-04 01:00N 40°42' W 073°60'3 6.5
2017-Dec-04 00:30N 40°45' W 073°58'2 4.8
2017-Dec-04 00:00N 40°47' W 073°56'3 5.9
2017-Dec-03 23:30N 40°48' W 073°52'2 4.2
2017-Dec-03 23:00N 40°48' W 073°49'2 4.7
2017-Dec-03 22:30N 40°48' W 073°52'0 0.8
2017-Dec-03 21:57N 40°48' W 073°53'3 6.3
2017-Dec-03 21:28N 40°46' W 073°56'3 6.6
2017-Dec-03 21:00N 40°44' W 073°58'3 5.5
2017-Dec-03 20:30N 40°42' W 074°00'2 4.9
2017-Dec-03 20:01N 40°40' W 074°03'1 1.1
2017-Dec-03 19:30N 40°40' W 074°03'1 1.1
2017-Dec-03 19:00N 40°40' W 074°03'0 0.1
2017-Dec-03 18:30N 40°40' W 074°03'2 3.1
2017-Dec-03 18:00N 40°41' W 074°02'3 6.8
2017-Dec-03 17:30N 40°44' W 074°01'3 6.4
2017-Dec-03 17:00N 40°47' W 073°59'3 6.0
2017-Dec-03 16:30N 40°50' W 073°58'3 5.3
2017-Dec-03 16:00N 40°53' W 073°56'3 4.2
2017-Dec-03 15:23N 40°55' W 073°55'6 0.3
2017-Dec-02 17:38N 41°01' W 073°53'2 3.6
2017-Dec-02 17:09N 40°59' W 073°54'1 3.9
2017-Dec-02 16:48N 40°58' W 073°54'1 4.1
2017-Dec-02 16:28N 40°57' W 073°54'2 4.2
2017-Dec-02 16:00N 40°55' W 073°55'2 4.8
2017-Dec-02 15:30N 40°53' W 073°56'2 4.8
2017-Dec-02 15:00N 40°50' W 073°57'3 5.6
2017-Dec-02 14:30N 40°48' W 073°59'3 6.6
2017-Dec-02 14:00N 40°45' W 074°01'3 6.5
2017-Dec-02 13:30N 40°42' W 074°02'2 4.5
2017-Dec-02 13:00N 40°40' W 074°03'0 0.2
2017-Dec-02 12:30N 40°40' W 074°03'0 0.1
2017-Dec-02 12:00N 40°40' W 074°03'0 0.0
2017-Dec-02 11:30N 40°40' W 074°03'1 3.0
2017-Dec-02 11:00N 40°40' W 074°01'1 2.1
2017-Dec-02 10:30N 40°40' W 074°00'2 4.9
2017-Dec-02 10:00N 40°40' W 074°03'0 0.9
2017-Dec-02 09:30N 40°40' W 074°03'2 3.3
2017-Dec-02 09:00N 40°40' W 074°01'1 1.8
2017-Dec-02 08:30N 40°40' W 073°60'2 4.1
2017-Dec-02 08:00N 40°40' W 074°03'1 1.1
2017-Dec-02 07:30N 40°40' W 074°03'1 1.9
2017-Dec-02 07:00N 40°41' W 074°03'4 7.1
2017-Dec-02 06:30N 40°44' W 074°01'4 8.3
2017-Dec-02 06:00N 40°48' W 073°59'4 8.3
2017-Dec-02 05:30N 40°52' W 073°57'4 7.5
2017-Dec-02 04:57N 40°55' W 073°55'1 0.2
2017-Dec-01 21:53N 40°57' W 073°54'3 6.5
2017-Dec-01 21:30N 40°54' W 073°55'3 6.1
2017-Dec-01 20:59N 40°52' W 073°57'3 5.5
2017-Dec-01 20:29N 40°49' W 073°58'2 4.9
2017-Dec-01 20:00N 40°47' W 073°60'2 4.4
2017-Dec-01 19:30N 40°45' W 074°01'2 4.6
2017-Dec-01 19:00N 40°43' W 074°01'2 4.4
2017-Dec-01 18:30N 40°41' W 074°02'0 0.9
2017-Dec-01 18:00N 40°40' W 074°02'1 1.2
2017-Dec-01 17:30N 40°40' W 074°01'1 1.7
2017-Dec-01 17:00N 40°40' W 074°02'  
Track history (hours):
 
Tides and Currents Weather Stations Pressure Air Temp Water Temp Dewpoint Dewpoint Depression Visibility Wind Speed Wind Dir Waves Ship Positions

Buchanan #12

Owner: Buchanan Marine LP, New Haven, CT. More information available from US FCC via Universal Licensing System and Coast Guard Vessel Documentation Center.

Last reported at 2017-Dec-11 17:00 UTC. Time now 2017-Dec-13 22:40 UTC.
Position N 40°40' W 074°01'.

Length 27 m; draft 3 m.

Type: Tug. MMSI: 366993970.

Date/timePositionNaut miles runAvg speedWind from/ knotsBaromVisibWave heightAir tempDewpointWater temp
2017-Dec-11 17:00N 40°40' W 074°01'0 0.0
2017-Dec-11 16:30N 40°40' W 074°01'0 0.0
2017-Dec-11 16:00N 40°40' W 074°01'0 0.0
2017-Dec-11 15:30N 40°40' W 074°01'0 0.0
2017-Dec-11 15:00N 40°40' W 074°01'0 0.0
2017-Dec-11 14:30N 40°40' W 074°01'0 0.0
2017-Dec-11 14:00N 40°40' W 074°01'0 0.0
2017-Dec-11 13:30N 40°40' W 074°01'0 0.0
2017-Dec-11 13:00N 40°40' W 074°01'0 0.0
2017-Dec-11 12:30N 40°40' W 074°01'0 0.0
2017-Dec-11 12:00N 40°40' W 074°01'0 0.0
2017-Dec-11 11:30N 40°40' W 074°01'0 0.0
2017-Dec-11 11:00N 40°40' W 074°01'0 0.0
2017-Dec-11 10:30N 40°40' W 074°01'0 0.0
2017-Dec-11 10:00N 40°40' W 074°01'0 0.1
2017-Dec-11 09:30N 40°40' W 074°01'2 3.6
2017-Dec-11 09:00N 40°40' W 074°03'2 4.8
2017-Dec-11 08:30N 40°41' W 074°01'3 6.8
2017-Dec-11 08:00N 40°44' W 073°58'3 6.0
2017-Dec-11 07:30N 40°47' W 073°56'3 5.8
2017-Dec-11 07:00N 40°48' W 073°53'3 6.2
2017-Dec-11 06:29N 40°48' W 073°48'2 3.4
2017-Dec-11 06:00N 40°48' W 073°51'0 0.1
2017-Dec-11 05:30N 40°48' W 073°50'3 6.6
2017-Dec-11 05:00N 40°47' W 073°55'4 7.9
2017-Dec-11 04:30N 40°45' W 073°58'3 7.0
2017-Dec-11 04:00N 40°42' W 074°00'3 5.6
2017-Dec-11 03:30N 40°40' W 074°03'0 0.2
2017-Dec-11 03:00N 40°40' W 074°03'0 0.1
2017-Dec-11 02:30N 40°40' W 074°03'0 1.0
2017-Dec-11 02:00N 40°40' W 074°03'3 6.9
2017-Dec-11 01:30N 40°43' W 074°01'4 7.4
2017-Dec-11 00:59N 40°47' W 073°60'3 7.0
2017-Dec-11 00:30N 40°50' W 073°58'3 6.5
2017-Dec-11 00:00N 40°53' W 073°56'6 0.3
2017-Dec-10 05:01N 40°59' W 073°54'0 6.0
2017-Dec-10 04:58N 40°58' W 073°54'3 5.7
2017-Dec-10 04:30N 40°56' W 073°55'3 5.2
2017-Dec-10 04:00N 40°53' W 073°56'3 5.0
2017-Dec-10 03:30N 40°51' W 073°57'2 4.6
2017-Dec-10 03:00N 40°49' W 073°58'2 4.2
2017-Dec-10 02:30N 40°47' W 073°60'2 4.0
2017-Dec-10 02:00N 40°45' W 074°01'2 3.9
2017-Dec-10 01:30N 40°43' W 074°01'2 3.6
2017-Dec-10 01:00N 40°41' W 074°02'2 3.8
2017-Dec-10 00:30N 40°40' W 074°03'0 0.1
2017-Dec-10 00:00N 40°40' W 074°03'3 6.8
2017-Dec-09 23:30N 40°42' W 073°60'611.1
2017-Dec-09 23:00N 40°47' W 073°56'5 9.5
2017-Dec-09 22:29N 40°48' W 073°50'0 0.6
2017-Dec-09 22:00N 40°48' W 073°49'0 0.0
2017-Dec-09 21:30N 40°48' W 073°49'0 0.0
2017-Dec-09 21:00N 40°48' W 073°49'0 0.0
2017-Dec-09 20:30N 40°48' W 073°49'0 0.0
2017-Dec-09 20:00N 40°48' W 073°49'0 0.0
2017-Dec-09 19:21N 40°48' W 073°49'0 0.1
2017-Dec-09 19:00N 40°48' W 073°49'0 0.0
2017-Dec-09 18:30N 40°48' W 073°49'0 0.0
2017-Dec-09 18:00N 40°48' W 073°49'0 0.0
2017-Dec-09 17:30N 40°48' W 073°49'0 0.0
2017-Dec-09 17:00N 40°48' W 073°49'0 0.5
2017-Dec-09 16:30N 40°48' W 073°50'2 3.4
2017-Dec-09 16:00N 40°48' W 073°52'4 8.0
2017-Dec-09 15:30N 40°46' W 073°57'4 8.6
2017-Dec-09 15:00N 40°42' W 073°59'4 7.5
2017-Dec-09 14:30N 40°40' W 074°03'1 2.9
2017-Dec-09 14:00N 40°39' W 074°04'2 3.2
2017-Dec-09 13:29N 40°39' W 074°07'0 0.0
2017-Dec-09 13:00N 40°39' W 074°07'0 0.0
2017-Dec-09 12:29N 40°39' W 074°07'0 0.0
2017-Dec-09 11:59N 40°39' W 074°07'0 0.0
2017-Dec-09 11:30N 40°39' W 074°07'0 0.0
2017-Dec-09 11:00N 40°39' W 074°07'1 2.2
2017-Dec-09 10:30N 40°39' W 074°05'2 3.3
2017-Dec-09 10:00N 40°40' W 074°03'0 0.0
2017-Dec-09 09:30N 40°40' W 074°03'0 0.0
2017-Dec-09 09:00N 40°40' W 074°03'0 0.0
2017-Dec-09 08:30N 40°40' W 074°03'0 0.0
2017-Dec-09 08:00N 40°40' W 074°03'0 0.0
2017-Dec-09 07:30N 40°40' W 074°03'0 0.1
2017-Dec-09 07:00N 40°40' W 074°03'3 6.0
2017-Dec-09 06:30N 40°42' W 074°00'3 5.6
2017-Dec-09 05:59N 40°44' W 073°58'2 4.2
2017-Dec-09 05:30N 40°46' W 073°57'2 3.8
2017-Dec-09 04:56N 40°47' W 073°55'2 4.6
2017-Dec-09 04:30N 40°48' W 073°52'3 4.5
2017-Dec-09 03:56N 40°48' W 073°49'0 0.4
2017-Dec-09 03:29N 40°48' W 073°49'3 6.1
2017-Dec-09 02:59N 40°48' W 073°53'3 6.0
2017-Dec-09 02:30N 40°46' W 073°56'3 6.3
2017-Dec-09 02:00N 40°44' W 073°58'3 5.6
2017-Dec-09 01:30N 40°41' W 074°00'2 4.4
2017-Dec-09 01:00N 40°40' W 074°03'1 1.1
2017-Dec-09 00:30N 40°40' W 074°03'2 4.6
2017-Dec-09 00:00N 40°42' W 074°02'4 7.1
2017-Dec-08 23:30N 40°45' W 074°01'4 7.0
2017-Dec-08 23:00N 40°49' W 073°59'3 6.6
2017-Dec-08 22:30N 40°52' W 073°57'3 5.9
2017-Dec-08 21:58N 40°54' W 073°55'5 0.3
2017-Dec-08 03:29N 40°59' W 073°53'3 6.6
2017-Dec-08 03:00N 40°56' W 073°55'3 6.1
2017-Dec-08 02:30N 40°53' W 073°56'3 5.9
2017-Dec-08 02:00N 40°51' W 073°57'3 5.1
2017-Dec-08 01:29N 40°48' W 073°59'2 4.6
2017-Dec-08 01:00N 40°46' W 074°00'2 4.3
2017-Dec-08 00:30N 40°44' W 074°01'2 4.8
2017-Dec-08 00:00N 40°42' W 074°02'2 4.5
2017-Dec-07 23:30N 40°40' W 074°03'0 0.0
2017-Dec-07 23:00N 40°40' W 074°03'0 0.0
2017-Dec-07 22:30N 40°40' W 074°03'1 2.6
2017-Dec-07 22:00N 40°41' W 074°02'4 7.6
2017-Dec-07 21:30N 40°43' W 073°58'4 8.4
2017-Dec-07 21:00N 40°47' W 073°55'3 6.6
2017-Dec-07 20:30N 40°48' W 073°51'2 3.0
2017-Dec-07 19:59N 40°48' W 073°49'0 0.0
2017-Dec-07 19:25N 40°48' W 073°49'0 0.0
2017-Dec-07 18:55N 40°48' W 073°49'0 0.0
2017-Dec-07 18:30N 40°48' W 073°49'0 0.0
2017-Dec-07 17:51N 40°48' W 073°49'0 0.0
2017-Dec-07 17:27N 40°48' W 073°49'0 0.0
2017-Dec-07 17:00N 40°48' W 073°49'0 0.0
2017-Dec-07 16:30N 40°48' W 073°49'0 0.0
2017-Dec-07 15:43N 40°48' W 073°49'0 0.0
2017-Dec-07 15:30N 40°48' W 073°49'0 0.0
2017-Dec-07 15:00N 40°48' W 073°49'1 1.0
2017-Dec-07 14:28N 40°48' W 073°49'3 5.4
2017-Dec-07 14:00N 40°48' W 073°52'4 7.4
2017-Dec-07 13:30N 40°46' W 073°56'4 7.9
2017-Dec-07 13:00N 40°43' W 073°58'4 7.2
2017-Dec-07 12:30N 40°40' W 074°02'1 2.4
2017-Dec-07 12:00N 40°40' W 074°03'0 0.1
2017-Dec-07 11:30N 40°40' W 074°03'1 1.1
2017-Dec-07 11:00N 40°40' W 074°03'4 7.6
2017-Dec-07 10:30N 40°44' W 074°01'4 8.1
2017-Dec-07 10:00N 40°48' W 073°59'4 7.7
2017-Dec-07 09:30N 40°51' W 073°57'3 6.9
2017-Dec-07 09:00N 40°54' W 073°55'  
2017-Dec-04 05:22N 40°58' W 073°54'2 6.5
2017-Dec-04 05:00N 40°56' W 073°55'3 6.7
2017-Dec-04 04:30N 40°53' W 073°56'4 7.1
2017-Dec-04 04:00N 40°49' W 073°58'4 7.8
2017-Dec-04 03:30N 40°46' W 074°00'4 7.7
2017-Dec-04 03:00N 40°42' W 074°02'2 4.1
2017-Dec-04 02:30N 40°40' W 074°03'2 3.4
2017-Dec-04 02:00N 40°40' W 074°01'0 0.0
2017-Dec-04 01:30N 40°40' W 074°01'2 4.7
2017-Dec-04 01:00N 40°42' W 073°60'3 6.5
2017-Dec-04 00:30N 40°45' W 073°58'2 4.8
2017-Dec-04 00:00N 40°47' W 073°56'3 5.9
2017-Dec-03 23:30N 40°48' W 073°52'2 4.2
2017-Dec-03 23:00N 40°48' W 073°49'2 4.7
2017-Dec-03 22:30N 40°48' W 073°52'0 0.8
2017-Dec-03 21:57N 40°48' W 073°53'3 6.3
2017-Dec-03 21:28N 40°46' W 073°56'3 6.6
2017-Dec-03 21:00N 40°44' W 073°58'3 5.5
2017-Dec-03 20:30N 40°42' W 074°00'2 4.9
2017-Dec-03 20:01N 40°40' W 074°03'1 1.1
2017-Dec-03 19:30N 40°40' W 074°03'1 1.1
2017-Dec-03 19:00N 40°40' W 074°03'0 0.1
2017-Dec-03 18:30N 40°40' W 074°03'2 3.1
2017-Dec-03 18:00N 40°41' W 074°02'3 6.8
2017-Dec-03 17:30N 40°44' W 074°01'3 6.4
2017-Dec-03 17:00N 40°47' W 073°59'3 6.0
2017-Dec-03 16:30N 40°50' W 073°58'3 5.3
2017-Dec-03 16:00N 40°53' W 073°56'3 4.2
2017-Dec-03 15:23N 40°55' W 073°55'6 0.3
2017-Dec-02 17:38N 41°01' W 073°53'2 3.6
2017-Dec-02 17:09N 40°59' W 073°54'1 3.9
2017-Dec-02 16:48N 40°58' W 073°54'1 4.1
2017-Dec-02 16:28N 40°57' W 073°54'2 4.2
2017-Dec-02 16:00N 40°55' W 073°55'2 4.8
2017-Dec-02 15:30N 40°53' W 073°56'2 4.8
2017-Dec-02 15:00N 40°50' W 073°57'3 5.6
2017-Dec-02 14:30N 40°48' W 073°59'3 6.6
2017-Dec-02 14:00N 40°45' W 074°01'3 6.5
2017-Dec-02 13:30N 40°42' W 074°02'2 4.5
2017-Dec-02 13:00N 40°40' W 074°03'0 0.2
2017-Dec-02 12:30N 40°40' W 074°03'0 0.1
2017-Dec-02 12:00N 40°40' W 074°03'0 0.0
2017-Dec-02 11:30N 40°40' W 074°03'1 3.0
2017-Dec-02 11:00N 40°40' W 074°01'1 2.1
2017-Dec-02 10:30N 40°40' W 074°00'2 4.9
2017-Dec-02 10:00N 40°40' W 074°03'0 0.9
2017-Dec-02 09:30N 40°40' W 074°03'2 3.3
2017-Dec-02 09:00N 40°40' W 074°01'1 1.8
2017-Dec-02 08:30N 40°40' W 073°60'2 4.1
2017-Dec-02 08:00N 40°40' W 074°03'1 1.1
2017-Dec-02 07:30N 40°40' W 074°03'1 1.9
2017-Dec-02 07:00N 40°41' W 074°03'4 7.1
2017-Dec-02 06:30N 40°44' W 074°01'4 8.3
2017-Dec-02 06:00N 40°48' W 073°59'4 8.3
2017-Dec-02 05:30N 40°52' W 073°57'4 7.5
2017-Dec-02 04:57N 40°55' W 073°55'1 0.2
2017-Dec-01 21:53N 40°57' W 073°54'3 6.5
2017-Dec-01 21:30N 40°54' W 073°55'3 6.1
2017-Dec-01 20:59N 40°52' W 073°57'3 5.5
2017-Dec-01 20:29N 40°49' W 073°58'2 4.9
2017-Dec-01 20:00N 40°47' W 073°60'2 4.4
2017-Dec-01 19:30N 40°45' W 074°01'2 4.6
2017-Dec-01 19:00N 40°43' W 074°01'2 4.4
2017-Dec-01 18:30N 40°41' W 074°02'0 0.9
2017-Dec-01 18:00N 40°40' W 074°02'1 1.2
2017-Dec-01 17:30N 40°40' W 074°01'1 1.7
2017-Dec-01 17:00N 40°40' W 074°02'  

Dump ship's entire track history